TimeMDT,TemperatureF,Dew PointF,Humidity,Sea Level PressureIn,VisibilityMPH,Wind Direction,Wind SpeedMPH,Gust SpeedMPH,PrecipitationIn,Events,Conditions,WindDirDegrees,DateUTC
12:00 AM,26,21,75,30.41,,NNE,6.9,,,,,30,2012-10-23 06:00:00
6:00 AM,25,22,83,30.43,,NNE,2.3,,,,,20,2012-10-23 12:00:00
8:00 AM,24.8,23.0,93,30.43,1.0,NNE,6.9,-,N/A,Snow,Light Snow,20,2012-10-23 14:00:00
8:40 AM,-9999,-9999,N/A,-9999,2.0,NNE,3.5,-,N/A,,Unknown,20,2012-10-23 14:40:00
9:00 AM,24.8,23.0,93,30.43,2.0,NNE,3.5,-,N/A,Snow,Light Snow,20,2012-10-23 15:00:00
9:30 AM,-9999,-9999,N/A,-9999,2.0,NNE,3.5,-,N/A,,Unknown,20,2012-10-23 15:30:00
9:42 AM,-9999,-9999,N/A,-9999,1.0,NNE,3.5,-,N/A,,Unknown,20,2012-10-23 15:42:00
10:00 AM,24.8,23.0,93,30.43,1.0,NNE,5.8,-,N/A,Snow,Light Snow,20,2012-10-23 16:00:00
10:34 AM,-9999,-9999,N/A,-9999,2.0,NNE,4.6,-,N/A,,Unknown,20,2012-10-23 16:34:00
11:00 AM,24.8,23.0,93,30.44,2.0,NNE,4.6,-,N/A,Snow,Light Snow,20,2012-10-23 17:00:00
12:00 PM,26,22,81,30.46,,North,4.6,,,,,10,2012-10-23 18:00:00
12:00 PM,24.8,23.0,93,30.45,2.0,NNE,9.2,-,N/A,Snow,Light Snow,20,2012-10-23 18:00:00
12:18 PM,-9999,-9999,N/A,-9999,1.0,NNE,9.2,-,N/A,,Unknown,20,2012-10-23 18:18:00
12:33 PM,-9999,-9999,N/A,-9999,1.0,NNE,6.9,-,N/A,,Unknown,30,2012-10-23 18:33:00
1:00 PM,26.6,23.0,86,30.44,1.0,NNE,6.9,-,N/A,Snow,Light Snow,30,2012-10-23 19:00:00
1:50 PM,-9999,-9999,N/A,-9999,2.0,NNE,6.9,-,N/A,,Unknown,30,2012-10-23 19:50:00
2:00 PM,26.6,21.2,80,30.45,2.0,NNE,6.9,-,N/A,Snow,Light Snow,30,2012-10-23 20:00:00
3:00 PM,26.6,21.2,80,30.45,2.0,NNE,10.4,-,N/A,Snow,Light Snow,20,2012-10-23 21:00:00
4:00 PM,26.6,21.2,80,30.45,2.0,NNE,5.8,-,N/A,Snow,Light Snow,20,2012-10-23 22:00:00
6:00 PM,26,21,76,30.48,,NNE,5.8,,,,,30,2012-10-24 00:00:00